Time;durP1;ratioP1;P1;durP2;ratioP2;P2;SDS_P1;SDS_P2;PMS_P1;PMS_P2;Temp;Humidity;BMP_temperature;BMP_pressure;BME280_temperature;BME280_humidity;BME280_pressure;Samples;Min_cycle;Max_cycle;Signal;HPM_P1;HPM_P2
2023/01/11 00:00:18;;;;;;;16.03;13.37;;;9.00;99.90;;;;;;5111928;28;20297;-87
2023/01/11 00:02:44;;;;;;;16.63;13.83;;;9.00;99.90;;;;;;5129498;28;20292;-88
2023/01/11 00:05:10;;;;;;;16.60;13.53;;;9.00;99.90;;;;;;5095019;28;20677;-87
2023/01/11 00:07:37;;;;;;;19.30;14.63;;;9.00;99.90;;;;;;5129264;28;20063;-87
2023/01/11 00:10:04;;;;;;;20.03;14.40;;;9.00;99.90;;;;;;5130500;27;20334;-86
2023/01/11 00:12:30;;;;;;;19.83;15.50;;;9.00;99.90;;;;;;5128800;28;20285;-87
2023/01/11 00:14:56;;;;;;;16.73;13.70;;;9.10;99.90;;;;;;5130251;27;20277;-88
2023/01/11 00:17:22;;;;;;;17.53;13.60;;;9.10;99.90;;;;;;5116088;28;20281;-87
2023/01/11 00:19:47;;;;;;;19.60;14.97;;;9.10;99.90;;;;;;5115376;28;20132;-86
2023/01/11 00:22:13;;;;;;;18.70;14.87;;;9.10;99.90;;;;;;5115536;28;20136;-87
2023/01/11 00:24:39;;;;;;;20.83;15.20;;;9.10;99.90;;;;;;5115059;28;20092;-86
2023/01/11 00:27:04;;;;;;;19.40;15.53;;;9.10;99.90;;;;;;5115335;28;20116;-87
2023/01/11 00:29:30;;;;;;;17.00;14.67;;;9.10;99.90;;;;;;5098168;28;20130;-87
2023/01/11 00:31:56;;;;;;;17.63;14.53;;;9.20;99.90;;;;;;5115445;28;20077;-86
2023/01/11 00:34:22;;;;;;;17.03;14.07;;;9.20;99.90;;;;;;5114839;28;20047;-85
2023/01/11 00:36:47;;;;;;;19.63;15.03;;;9.20;99.90;;;;;;5116144;28;20510;-87
2023/01/11 00:39:13;;;;;;;17.33;14.07;;;9.20;99.90;;;;;;5116102;27;20043;-87
2023/01/11 00:49:57;;;;;;;18.30;12.93;;;9.20;99.90;;;;;;5114669;28;20293;-88
2023/01/11 00:52:23;;;;;;;16.73;12.50;;;9.30;99.90;;;;;;5115886;28;20281;-88
2023/01/11 00:54:48;;;;;;;16.50;12.30;;;9.20;99.90;;;;;;5114484;28;20537;-87
2023/01/11 00:57:14;;;;;;;14.63;11.67;;;9.30;99.90;;;;;;5114436;28;20126;-87
2023/01/11 00:59:40;;;;;;;15.30;11.50;;;9.30;99.90;;;;;;5115441;28;20048;-87
2023/01/11 01:02:07;;;;;;;17.03;12.00;;;9.30;99.90;;;;;;5114502;28;20048;-88
2023/01/11 01:04:33;;;;;;;13.50;10.37;;;9.40;99.90;;;;;;5114280;28;20048;-88
2023/01/11 01:06:59;;;;;;;14.37;10.93;;;9.30;99.90;;;;;;5114326;28;20338;-87
2023/01/11 01:09:25;;;;;;;12.30;10.47;;;9.30;99.90;;;;;;5114318;28;20281;-88
2023/01/11 01:11:51;;;;;;;14.40;10.97;;;9.40;99.90;;;;;;5114213;28;20078;-87
2023/01/11 01:14:29;;;;;;;12.27;10.20;;;9.40;99.90;;;;;;5115384;28;20313;-88
2023/01/11 01:17:01;;;;;;;14.67;10.37;;;9.40;99.90;;;;;;5114316;28;20052;-88
2023/01/11 01:19:28;;;;;;;13.70;10.57;;;9.40;99.90;;;;;;5114291;28;20661;-88
2023/01/11 01:21:55;;;;;;;12.80;10.10;;;9.50;99.90;;;;;;5115517;28;20286;-87
2023/01/11 01:24:22;;;;;;;12.00;9.60;;;9.50;99.90;;;;;;5115138;28;20292;-87
2023/01/11 01:26:48;;;;;;;15.47;10.40;;;9.50;99.90;;;;;;5096826;28;20777;-88
2023/01/11 01:29:14;;;;;;;12.03;9.50;;;9.60;99.90;;;;;;5096251;28;20368;-88
2023/01/11 01:31:42;;;;;;;12.60;9.47;;;9.60;99.90;;;;;;5113717;28;20289;-88
2023/01/11 01:34:08;;;;;;;12.63;9.63;;;9.60;99.90;;;;;;5096679;28;20277;-88
2023/01/11 01:36:34;;;;;;;13.50;9.90;;;9.60;99.90;;;;;;5114760;28;20278;-88
2023/01/11 01:39:01;;;;;;;11.33;9.03;;;9.70;99.90;;;;;;5113895;28;20309;-88
2023/01/11 01:41:27;;;;;;;11.20;9.00;;;9.70;99.90;;;;;;5114874;28;20636;-88
2023/01/11 01:43:55;;;;;;;10.27;8.20;;;9.70;99.90;;;;;;5096243;28;20308;-87
2023/01/11 01:46:25;;;;;;;10.87;8.83;;;9.70;99.90;;;;;;5113456;28;20047;-88
2023/01/11 01:48:58;;;;;;;11.87;9.07;;;9.70;99.90;;;;;;5113503;28;20281;-89
2023/01/11 01:51:32;;;;;;;13.10;7.90;;;9.70;99.90;;;;;;5113801;28;20765;-89
2023/01/11 01:54:05;;;;;;;11.68;7.82;;;9.70;99.90;;;;;;5113678;28;20285;-88
2023/01/11 01:56:59;;;;;;;10.63;8.00;;;9.70;99.90;;;;;;5113351;28;20108;-89
2023/01/11 01:59:27;;;;;;;11.43;7.70;;;9.80;99.90;;;;;;5111533;28;20282;-88
2023/01/11 02:01:54;;;;;;;11.63;8.13;;;9.80;99.90;;;;;;5114338;27;20338;-88
2023/01/11 02:04:25;;;;;;;8.83;7.03;;;9.80;99.90;;;;;;5096251;28;20317;-88
2023/01/11 02:07:00;;;;;;;11.50;7.87;;;9.80;99.90;;;;;;5114271;27;20686;-87
2023/01/11 02:09:36;;;;;;;9.10;6.70;;;9.90;99.90;;;;;;5113413;28;20384;-88
2023/01/11 02:12:04;;;;;;;8.03;5.90;;;9.90;99.90;;;;;;5113509;28;20433;-88
2023/01/11 02:14:31;;;;;;;8.13;6.13;;;9.90;99.90;;;;;;5113182;28;20300;-88
2023/01/11 02:16:58;;;;;;;8.33;6.07;;;10.00;99.90;;;;;;5113882;28;20286;-88
2023/01/11 02:19:45;;;;;;;8.80;5.43;;;10.00;99.90;;;;;;5112878;28;20305;-88
2023/01/11 02:22:33;;;;;;;8.93;5.70;;;10.00;99.90;;;;;;5112981;28;20361;-88
2023/01/11 02:25:30;;;;;;;6.83;5.37;;;10.00;99.90;;;;;;5112654;28;20833;-88
2023/01/11 02:27:56;;;;;;;7.50;5.60;;;10.10;99.90;;;;;;5112846;28;20844;-88
2023/01/11 02:30:32;;;;;;;8.87;6.57;;;10.10;99.90;;;;;;5112740;28;20293;-88
2023/01/11 02:33:10;;;;;;;9.80;6.63;;;10.10;99.90;;;;;;5113692;28;20054;-88
2023/01/11 02:35:48;;;;;;;9.43;6.10;;;10.10;99.90;;;;;;5112971;28;20290;-88
2023/01/11 02:38:29;;;;;;;8.37;5.70;;;10.10;99.90;;;;;;5113900;28;20288;-87
2023/01/11 02:41:02;;;;;;;8.40;6.37;;;10.10;99.90;;;;;;5112524;28;20422;-87
2023/01/11 02:46:49;;;;;;;8.53;5.40;;;10.10;99.90;;;;;;5099660;28;20286;-88
2023/01/11 02:49:50;;;;;;;9.47;6.20;;;10.20;99.90;;;;;;5112669;28;20297;-88
2023/01/11 02:52:31;;;;;;;8.10;5.43;;;10.20;99.90;;;;;;5112724;28;20285;-88
2023/01/11 02:54:59;;;;;;;7.90;6.00;;;10.20;99.90;;;;;;5113442;28;20269;-88
2023/01/11 02:57:28;;;;;;;9.97;6.80;;;10.20;99.90;;;;;;5113791;28;20278;-88
2023/01/11 02:59:56;;;;;;;9.43;6.60;;;10.20;99.90;;;;;;5095429;28;20376;-87
2023/01/11 03:02:23;;;;;;;11.83;7.43;;;10.20;99.90;;;;;;5095623;28;20761;-88
2023/01/11 03:04:49;;;;;;;14.50;8.00;;;10.20;99.90;;;;;;5111757;28;20358;-86
2023/01/11 03:07:34;;;;;;;11.97;8.83;;;10.20;99.90;;;;;;5095906;28;20298;-86
2023/01/11 03:10:11;;;;;;;14.55;9.45;;;10.20;99.90;;;;;;5113452;28;20074;-88
2023/01/11 03:12:55;;;;;;;14.00;9.43;;;10.30;99.90;;;;;;5113501;28;20044;-89
2023/01/11 03:15:46;;;;;;;15.33;10.40;;;10.30;99.90;;;;;;5113781;28;20299;-89
2023/01/11 03:18:50;;;;;;;15.07;10.47;;;10.30;99.90;;;;;;5112397;28;20833;-88
2023/01/11 03:21:25;;;;;;;20.70;11.27;;;10.20;99.90;;;;;;5112664;28;20636;-89
2023/01/11 03:23:58;;;;;;;;;;;10.20;99.90;;;;;;5096410;28;20329;-89
2023/01/11 03:26:56;;;;;;;22.27;11.50;;;10.20;99.90;;;;;;5114986;28;20119;-90
2023/01/11 03:29:30;;;;;;;18.93;9.23;;;10.20;99.90;;;;;;5114180;28;20297;-90
2023/01/11 03:31:56;;;;;;;23.48;11.23;;;10.20;99.90;;;;;;5112557;28;20297;-89
2023/01/11 03:34:28;;;;;;;22.80;10.73;;;10.20;99.90;;;;;;5112346;28;20071;-90
2023/01/11 03:37:13;;;;;;;22.33;11.13;;;10.20;99.90;;;;;;5111967;28;20061;-90
2023/01/11 03:39:45;;;;;;;24.83;10.70;;;10.20;99.90;;;;;;5112551;28;20281;-90
2023/01/11 03:42:18;;;;;;;20.87;9.80;;;10.20;99.90;;;;;;5112467;28;20040;-90
2023/01/11 03:44:47;;;;;;;20.33;9.67;;;10.20;99.90;;;;;;5112334;28;20313;-90
2023/01/11 03:47:17;;;;;;;22.77;9.43;;;10.20;99.90;;;;;;5113285;28;20277;-90
2023/01/11 03:49:47;;;;;;;25.23;10.10;;;10.20;99.90;;;;;;5112370;28;20296;-90
2023/01/11 03:52:16;;;;;;;29.97;9.33;;;10.20;99.90;;;;;;5114869;28;20788;-89
2023/01/11 03:54:43;;;;;;;25.67;8.43;;;10.20;99.90;;;;;;5116107;28;20637;-88
2023/01/11 03:57:11;;;;;;;26.33;8.23;;;10.20;99.90;;;;;;5115648;28;20411;-89
2023/01/11 03:59:38;;;;;;;26.30;8.97;;;10.20;99.90;;;;;;5115989;28;20336;-88
2023/01/11 04:02:13;;;;;;;31.10;9.67;;;10.20;99.90;;;;;;5116252;28;20414;-88
2023/01/11 04:04:38;;;;;;;35.53;8.87;;;10.20;99.90;;;;;;5115338;28;20309;-89
2023/01/11 04:07:04;;;;;;;31.63;8.30;;;10.20;99.90;;;;;;5116609;28;20361;-89
2023/01/11 04:09:30;;;;;;;35.43;8.70;;;10.20;99.90;;;;;;5115717;28;20046;-89
2023/01/11 04:11:55;;;;;;;27.53;7.70;;;10.20;99.90;;;;;;5098149;28;20120;-89
2023/01/11 04:14:21;;;;;;;30.30;7.40;;;10.20;99.90;;;;;;5081985;28;20126;-89
2023/01/11 04:16:47;;;;;;;31.93;7.10;;;10.20;99.90;;;;;;5098704;28;20047;-89
2023/01/11 04:19:12;;;;;;;41.97;7.50;;;10.20;99.90;;;;;;5115363;28;20062;-89
2023/01/11 04:21:38;;;;;;;35.50;7.27;;;10.20;99.90;;;;;;5115168;28;20043;-89
2023/01/11 04:24:04;;;;;;;35.33;6.83;;;10.20;99.90;;;;;;5098099;28;20043;-88
2023/01/11 04:26:30;;;;;;;36.73;6.77;;;10.20;99.90;;;;;;5115093;28;20442;-87
2023/01/11 04:28:55;;;;;;;34.57;6.07;;;10.20;99.90;;;;;;5098118;28;20047;-87
2023/01/11 04:31:21;;;;;;;35.80;6.13;;;10.20;99.90;;;;;;5116416;28;20506;-88
2023/01/11 04:33:47;;;;;;;24.73;4.83;;;10.10;99.90;;;;;;5098476;28;20503;-89
2023/01/11 04:36:13;;;;;;;25.90;5.00;;;10.10;99.90;;;;;;5114842;28;20047;-90
2023/01/11 04:38:38;;;;;;;33.47;5.53;;;10.10;99.90;;;;;;5115288;28;20047;-90
2023/01/11 04:43:48;;;;;;;32.33;4.40;;;10.10;99.90;;;;;;5116113;28;20087;-90
2023/01/11 04:46:14;;;;;;;30.97;4.93;;;10.00;99.90;;;;;;5114451;28;20337;-89
2023/01/11 04:48:40;;;;;;;37.93;5.30;;;10.10;99.90;;;;;;5098258;28;20039;-89
2023/01/11 04:51:07;;;;;;;41.03;5.27;;;10.00;99.90;;;;;;5115739;28;20045;-89
2023/01/11 04:53:33;;;;;;;47.00;5.67;;;10.00;99.90;;;;;;5114943;28;20368;-90
2023/01/11 04:56:04;;;;;;;39.90;5.57;;;10.10;99.90;;;;;;5097663;28;20289;-89
2023/01/11 04:58:31;;;;;;;49.97;6.03;;;10.10;99.90;;;;;;5115084;28;20292;-89
2023/01/11 05:00:56;;;;;;;48.33;6.40;;;10.00;99.90;;;;;;5114569;28;20386;-89
2023/01/11 05:03:22;;;;;;;35.73;5.20;;;10.10;99.90;;;;;;5114988;28;20334;-90
2023/01/11 05:05:59;;;;;;;36.93;5.33;;;10.00;99.90;;;;;;5113928;28;20051;-88
2023/01/11 05:08:26;;;;;;;39.83;4.97;;;10.00;99.90;;;;;;5115813;28;20277;-89
2023/01/11 05:10:57;;;;;;;49.87;5.50;;;10.00;99.90;;;;;;5080937;28;20292;-89
2023/01/11 05:13:40;;;;;;;38.37;5.67;;;10.00;99.90;;;;;;5097873;28;20358;-89
2023/01/11 05:16:26;;;;;;;34.87;5.40;;;10.00;99.90;;;;;;5097325;28;20675;-89
2023/01/11 05:18:54;;;;;;;28.07;4.50;;;10.00;99.90;;;;;;5097066;28;20377;-90
2023/01/11 05:21:23;;;;;;;29.23;4.57;;;10.00;99.90;;;;;;5114067;28;20339;-90
2023/01/11 05:23:49;;;;;;;28.20;4.00;;;9.90;99.90;;;;;;5097277;28;20297;-90
2023/01/11 05:26:22;;;;;;;32.67;4.50;;;9.90;99.90;;;;;;5113717;28;20320;-90
2023/01/11 05:28:48;;;;;;;30.67;4.80;;;9.90;99.90;;;;;;5114236;28;20054;-89
2023/01/11 05:31:14;;;;;;;28.53;4.07;;;9.80;99.90;;;;;;5096983;28;20681;-90
2023/01/11 05:33:40;;;;;;;27.67;4.47;;;9.90;99.90;;;;;;5115177;28;20289;-89
2023/01/11 05:36:12;;;;;;;40.43;4.77;;;9.80;99.90;;;;;;5113610;28;20282;-89
2023/01/11 05:38:38;;;;;;;37.87;5.33;;;9.80;99.90;;;;;;5115104;28;20054;-89
2023/01/11 05:41:07;;;;;;;37.87;5.53;;;9.70;99.90;;;;;;5096483;28;20289;-89
2023/01/11 05:45:27;;;;;;;40.63;4.90;;;9.70;99.90;;;;;;5097070;28;20434;-89
2023/01/11 05:46:19;;;;;;;35.27;5.30;;;9.70;99.90;;;;;;5113159;28;21156;-89
2023/01/11 05:48:45;;;;;;;41.73;6.37;;;9.60;99.90;;;;;;5096765;28;20811;-89
2023/01/11 05:51:10;;;;;;;41.20;5.80;;;9.60;99.90;;;;;;5113538;28;20285;-88
2023/01/11 05:53:36;;;;;;;40.17;6.50;;;9.60;99.90;;;;;;5097570;28;20392;-88
2023/01/11 05:56:02;;;;;;;38.17;5.07;;;9.60;99.90;;;;;;5096395;28;20467;-88
2023/01/11 05:58:27;;;;;;;42.17;4.67;;;9.60;99.90;;;;;;5096754;28;20051;-89
2023/01/11 06:00:55;;;;;;;42.50;5.40;;;9.50;99.90;;;;;;5113512;28;20051;-89
2023/01/11 06:03:25;;;;;;;45.57;5.57;;;9.50;99.90;;;;;;5114369;28;20590;-88
2023/01/11 06:05:52;;;;;;;34.07;5.07;;;9.50;99.90;;;;;;5112616;28;20321;-89
2023/01/11 06:08:18;;;;;;;43.37;5.53;;;9.50;99.90;;;;;;5113210;28;20285;-88
2023/01/11 06:10:50;;;;;;;39.27;5.33;;;9.50;99.90;;;;;;5114385;28;20369;-88
2023/01/11 06:13:25;;;;;;;36.13;4.67;;;9.50;99.90;;;;;;5112991;28;20761;-88
2023/01/11 06:15:57;;;;;;;37.33;5.55;;;9.50;99.90;;;;;;5097470;28;20350;-88
2023/01/11 06:18:23;;;;;;;29.53;4.60;;;9.50;99.90;;;;;;5096044;28;20055;-88
2023/01/11 06:20:50;;;;;;;35.10;5.30;;;9.50;99.90;;;;;;5113118;28;20343;-88
2023/01/11 06:23:16;;;;;;;33.33;4.53;;;9.50;99.90;;;;;;5112885;28;20430;-88
2023/01/11 06:25:42;;;;;;;30.47;4.43;;;9.50;99.90;;;;;;5113120;28;20301;-88
2023/01/11 06:28:07;;;;;;;35.23;4.47;;;9.50;99.90;;;;;;5112513;28;20035;-87
2023/01/11 06:30:33;;;;;;;29.47;4.63;;;9.40;99.90;;;;;;5113072;28;20050;-88
2023/01/11 06:33:05;;;;;;;33.57;4.53;;;9.40;99.90;;;;;;5096065;28;20046;-88
2023/01/11 06:35:42;;;;;;;24.83;3.67;;;9.40;99.90;;;;;;5096226;28;20043;-88
2023/01/11 06:38:10;;;;;;;27.33;4.07;;;9.40;99.90;;;;;;5112625;28;20368;-87
2023/01/11 06:40:37;;;;;;;36.17;5.17;;;9.40;99.90;;;;;;5095830;28;20289;-88
2023/01/11 06:43:03;;;;;;;33.67;4.17;;;9.40;99.90;;;;;;5095961;28;20300;-88
2023/01/11 06:45:29;;;;;;;26.37;4.13;;;9.40;99.90;;;;;;5095329;28;20657;-87
2023/01/11 06:47:56;;;;;;;31.80;4.73;;;9.40;99.90;;;;;;5112815;28;20070;-88
2023/01/11 06:50:22;;;;;;;31.30;4.70;;;9.40;99.90;;;;;;5112526;28;20289;-87
2023/01/11 06:52:55;;;;;;;27.30;3.60;;;9.40;99.90;;;;;;5079049;28;20277;-88
2023/01/11 06:55:22;;;;;;;28.13;3.97;;;9.40;99.90;;;;;;5095662;28;20629;-89
2023/01/11 06:57:48;;;;;;;34.73;4.17;;;9.30;99.90;;;;;;5095654;28;20285;-88
2023/01/11 07:00:15;;;;;;;29.20;3.80;;;9.30;99.90;;;;;;5112420;28;20298;-88
2023/01/11 07:02:41;;;;;;;31.97;4.87;;;9.30;99.90;;;;;;5112655;28;20047;-88
2023/01/11 07:05:07;;;;;;;30.37;4.20;;;9.30;99.90;;;;;;5095232;28;20310;-87
2023/01/11 07:07:33;;;;;;;24.67;3.43;;;9.20;99.90;;;;;;5112543;28;20044;-88
2023/01/11 07:09:59;;;;;;;25.63;3.63;;;9.20;99.90;;;;;;5079005;28;20285;-88
2023/01/11 07:12:24;;;;;;;22.10;3.50;;;9.20;99.90;;;;;;5095103;28;20100;-88
2023/01/11 07:14:50;;;;;;;32.30;3.90;;;9.20;99.90;;;;;;5095338;28;20051;-88
2023/01/11 07:17:16;;;;;;;25.63;3.63;;;9.20;99.90;;;;;;5095392;28;20134;-88
2023/01/11 07:19:41;;;;;;;25.97;3.33;;;9.20;99.90;;;;;;5112469;28;20396;-88
2023/01/11 07:22:07;;;;;;;21.40;4.00;;;9.20;99.90;;;;;;5095538;28;20047;-88
2023/01/11 07:24:33;;;;;;;25.30;3.10;;;9.20;99.90;;;;;;5111997;28;20127;-88
2023/01/11 07:27:00;;;;;;;23.57;3.77;;;9.20;99.90;;;;;;5080963;28;20058;-88
2023/01/11 07:29:26;;;;;;;29.10;3.57;;;9.20;99.90;;;;;;5099301;28;20043;-88
2023/01/11 07:31:52;;;;;;;20.43;3.43;;;9.10;99.90;;;;;;5099449;28;20288;-89
2023/01/11 07:34:18;;;;;;;20.70;3.37;;;9.10;99.90;;;;;;5116230;28;20281;-88
2023/01/11 07:36:44;;;;;;;21.60;3.03;;;9.10;99.90;;;;;;5099461;28;20094;-88
2023/01/11 07:39:09;;;;;;;26.00;4.37;;;9.10;99.90;;;;;;5099502;28;20048;-88
2023/01/11 07:44:19;;;;;;;16.87;3.10;;;9.00;99.90;;;;;;5115985;28;20047;-88
2023/01/11 07:46:45;;;;;;;23.67;3.00;;;9.00;99.90;;;;;;5116503;28;20838;-88
2023/01/11 07:49:11;;;;;;;22.23;3.03;;;9.00;99.90;;;;;;5082353;28;20055;-88
2023/01/11 07:51:37;;;;;;;18.67;2.40;;;8.90;99.90;;;;;;5082108;28;20422;-88
2023/01/11 07:54:03;;;;;;;17.83;2.90;;;8.90;99.90;;;;;;5082452;28;20131;-89
2023/01/11 07:56:31;;;;;;;21.30;2.73;;;8.90;99.90;;;;;;5115792;28;20047;-88
2023/01/11 07:58:57;;;;;;;21.00;2.57;;;8.80;99.90;;;;;;5118091;28;20400;-88
2023/01/11 08:01:23;;;;;;;18.47;3.23;;;8.80;99.90;;;;;;5116407;28;20289;-88
2023/01/11 08:03:50;;;;;;;21.03;3.03;;;8.80;99.90;;;;;;5115895;28;20483;-88
2023/01/11 08:06:15;;;;;;;21.53;3.00;;;8.80;99.90;;;;;;5081256;28;20313;-87
2023/01/11 08:08:42;;;;;;;24.97;3.67;;;8.80;99.90;;;;;;5098724;28;20282;-87
2023/01/11 08:16:37;;;;;;;17.13;3.03;;;8.80;99.90;;;;;;5115476;28;20285;-88
2023/01/11 08:19:03;;;;;;;20.80;3.17;;;8.80;99.90;;;;;;5115408;28;20278;-88
2023/01/11 08:21:28;;;;;;;18.50;2.50;;;8.80;99.90;;;;;;5098238;28;20039;-87
2023/01/11 08:23:56;;;;;;;20.27;2.73;;;8.70;99.90;;;;;;5115475;28;20442;-88
2023/01/11 08:26:25;;;;;;;16.37;2.70;;;8.70;99.90;;;;;;5097950;28;20395;-88
2023/01/11 08:28:52;;;;;;;20.90;2.93;;;8.70;99.90;;;;;;5081636;28;20301;-88
2023/01/11 08:31:19;;;;;;;20.70;2.73;;;8.70;99.90;;;;;;5115062;28;20285;-87
2023/01/11 08:33:45;;;;;;;16.90;2.90;;;8.70;99.90;;;;;;5115253;28;20293;-87
2023/01/11 08:36:11;;;;;;;17.47;2.73;;;8.70;99.90;;;;;;5098323;28;20285;-87
2023/01/11 08:38:37;;;;;;;18.90;2.60;;;8.70;99.90;;;;;;5097563;28;20319;-88
2023/01/11 08:41:09;;;;;;;17.57;2.63;;;8.70;99.90;;;;;;5115121;28;20380;-88
2023/01/11 08:43:39;;;;;;;17.00;2.30;;;8.70;99.90;;;;;;5081962;28;20395;-88
2023/01/11 08:46:06;;;;;;;17.17;2.90;;;8.70;99.90;;;;;;5097796;28;20301;-89
2023/01/11 08:48:31;;;;;;;18.93;2.83;;;8.70;99.90;;;;;;5097888;28;20321;-87
2023/01/11 08:50:57;;;;;;;17.37;2.47;;;8.70;99.90;;;;;;5114870;28;20321;-88
2023/01/11 08:53:23;;;;;;;18.20;2.97;;;8.60;99.90;;;;;;5097857;28;20051;-85
2023/01/11 08:55:50;;;;;;;16.37;2.43;;;8.70;99.90;;;;;;5098362;28;20124;-89
2023/01/11 08:58:15;;;;;;;14.97;2.37;;;8.60;99.90;;;;;;5114965;28;20039;-90
2023/01/11 09:00:41;;;;;;;14.57;2.50;;;8.70;99.90;;;;;;5114346;28;20286;-84
2023/01/11 09:03:10;;;;;;;17.93;2.43;;;8.60;99.90;;;;;;5114817;28;20387;-83
2023/01/11 09:05:37;;;;;;;23.23;3.70;;;8.60;99.90;;;;;;5097198;28;20098;-82
2023/01/11 09:08:03;;;;;;;19.00;3.10;;;8.50;99.90;;;;;;5097900;28;20297;-82
2023/01/11 09:10:29;;;;;;;20.27;2.50;;;8.50;99.90;;;;;;5114376;28;20326;-84
2023/01/11 09:12:55;;;;;;;13.33;2.27;;;8.40;99.90;;;;;;5114537;28;20293;-82
2023/01/11 09:15:22;;;;;;;17.77;2.97;;;8.40;99.90;;;;;;5114383;28;20051;-84
2023/01/11 09:17:49;;;;;;;16.97;2.97;;;8.40;99.90;;;;;;5097462;28;20285;-83
2023/01/11 09:20:16;;;;;;;20.93;3.40;;;8.40;99.90;;;;;;5097141;28;20813;-84
2023/01/11 09:22:49;;;;;;;20.07;3.27;;;8.40;99.90;;;;;;5097270;28;20293;-82
2023/01/11 09:25:15;;;;;;;20.13;2.93;;;8.30;99.90;;;;;;5114214;28;20305;-83
2023/01/11 09:27:45;;;;;;;18.83;3.43;;;8.40;99.90;;;;;;5114888;28;20285;-83
2023/01/11 09:30:13;;;;;;;17.87;3.17;;;8.40;99.90;;;;;;5115407;28;20300;-83
2023/01/11 09:32:38;;;;;;;17.23;2.90;;;8.30;99.90;;;;;;5114933;28;20265;-83
2023/01/11 09:35:05;;;;;;;21.33;2.80;;;8.30;99.90;;;;;;5114186;28;20296;-83
2023/01/11 09:37:31;;;;;;;20.50;3.30;;;8.40;99.90;;;;;;5096739;28;20044;-83
2023/01/11 09:39:58;;;;;;;16.30;2.30;;;8.30;99.90;;;;;;5114155;28;20279;-82
2023/01/11 09:42:38;;;;;;;15.20;2.27;;;8.30;99.90;;;;;;5114072;28;20646;-85
2023/01/11 09:45:26;;;;;;;18.40;2.83;;;8.40;99.90;;;;;;5113953;28;20310;-83
2023/01/11 09:48:10;;;;;;;16.87;3.00;;;8.40;99.90;;;;;;5113885;28;20787;-82
2023/01/11 09:50:42;;;;;;;15.93;2.50;;;8.30;99.90;;;;;;5113140;28;20285;-83
2023/01/11 09:53:19;;;;;;;14.63;3.10;;;8.40;99.90;;;;;;5115355;28;20273;-83
2023/01/11 09:55:48;;;;;;;14.97;2.97;;;8.40;99.90;;;;;;5096643;28;20289;-82
2023/01/11 09:58:21;;;;;;;18.43;2.80;;;8.40;99.90;;;;;;5113794;28;20501;-83
2023/01/11 10:01:03;;;;;;;19.13;2.63;;;8.40;99.90;;;;;;5113374;28;20838;-83
2023/01/11 10:03:44;;;;;;;15.87;2.47;;;8.40;99.90;;;;;;5113093;28;20290;-80
2023/01/11 10:06:49;;;;;;;20.10;3.00;;;8.40;99.90;;;;;;5114067;28;20309;-78
2023/01/11 10:09:24;;;;;;;21.50;3.20;;;8.40;99.90;;;;;;5112787;28;20292;-78
2023/01/11 10:12:09;;;;;;;21.05;3.20;;;8.50;99.90;;;;;;5111626;28;20046;-79
2023/01/11 10:14:53;;;;;;;20.40;2.92;;;8.50;99.90;;;;;;5112202;28;20396;-79
2023/01/11 10:17:37;;;;;;;20.83;3.93;;;8.50;99.90;;;;;;5113213;28;20047;-78
2023/01/11 10:20:15;;;;;;;22.83;3.30;;;8.50;99.90;;;;;;5112389;28;20289;-78
2023/01/11 10:22:46;;;;;;;21.10;3.30;;;8.50;99.90;;;;;;5112972;28;20281;-79
2023/01/11 10:25:14;;;;;;;16.57;2.50;;;8.50;99.90;;;;;;5113679;28;20297;-79
2023/01/11 10:27:54;;;;;;;19.93;3.20;;;8.50;99.90;;;;;;5113371;28;20285;-79
2023/01/11 10:30:36;;;;;;;20.20;2.83;;;8.60;99.90;;;;;;5111776;28;20729;-80
2023/01/11 10:42:28;;;;;;;21.43;3.43;;;8.70;99.90;;;;;;5106906;28;20282;-80
2023/01/11 10:44:54;;;;;;;26.93;3.70;;;8.70;99.90;;;;;;5113558;28;20285;-81
2023/01/11 10:47:26;;;;;;;27.47;3.50;;;8.70;99.90;;;;;;5113743;28;20292;-89
2023/01/11 10:50:13;;;;;;;23.63;4.10;;;8.70;99.90;;;;;;5112550;28;20515;-86
2023/01/11 10:53:03;;;;;;;31.47;4.77;;;8.70;99.90;;;;;;5112659;28;20293;-89
2023/01/11 10:55:31;;;;;;;25.87;4.07;;;8.70;99.90;;;;;;5105921;28;20699;-83
2023/01/11 10:58:17;;;;;;;23.83;3.43;;;8.70;99.90;;;;;;5112633;28;20289;-82
2023/01/11 11:01:07;;;;;;;27.83;3.65;;;8.70;99.90;;;;;;5112359;28;20376;-84
2023/01/11 11:04:12;;;;;;;26.00;4.97;;;8.70;99.90;;;;;;5113715;28;20384;-86
2023/01/11 11:06:56;;;;;;;22.57;3.30;;;8.70;99.90;;;;;;5112208;28;20302;-82
2023/01/11 11:09:53;;;;;;;22.10;4.43;;;8.70;99.90;;;;;;5112769;28;20289;-79
2023/01/11 11:12:31;;;;;;;23.03;3.57;;;8.80;99.90;;;;;;5113517;28;20745;-86
2023/01/11 11:15:02;;;;;;;28.90;4.53;;;8.70;99.90;;;;;;5113238;28;20309;-82
2023/01/11 11:17:32;;;;;;;23.57;4.10;;;8.70;99.90;;;;;;5112562;28;20674;-82
2023/01/11 11:19:58;;;;;;;20.27;3.73;;;8.70;99.90;;;;;;5113275;28;20328;-84
2023/01/11 11:22:24;;;;;;;23.03;3.47;;;8.70;99.90;;;;;;5113381;28;20319;-82
2023/01/11 11:24:58;;;;;;;22.77;3.50;;;8.80;99.90;;;;;;5111565;28;20039;-86
2023/01/11 11:27:53;;;;;;;19.95;3.83;;;8.80;99.90;;;;;;5113154;28;20052;-84
2023/01/11 11:30:33;;;;;;;22.67;3.70;;;8.80;99.90;;;;;;5095475;28;20051;-82
2023/01/11 11:33:07;;;;;;;21.33;3.67;;;8.80;99.90;;;;;;5112115;28;20289;-83
2023/01/11 11:35:40;;;;;;;23.23;3.87;;;8.80;99.90;;;;;;5113570;28;20303;-82
2023/01/11 11:38:21;;;;;;;24.07;3.73;;;8.80;99.90;;;;;;5112461;28;20831;-83
2023/01/11 11:40:56;;;;;;;24.47;3.60;;;8.80;99.90;;;;;;5113182;28;20285;-83
2023/01/11 11:43:23;;;;;;;;;;;8.80;99.90;;;;;;5113878;28;20357;-82
2023/01/11 11:45:52;;;;;;;22.73;4.27;;;8.70;99.90;;;;;;5113006;28;19919;-81
2023/01/11 11:48:18;;;;;;;32.30;4.43;;;8.80;99.90;;;;;;5113279;28;20281;-82
2023/01/11 11:50:46;;;;;;;24.33;3.47;;;8.80;99.90;;;;;;5112001;28;20281;-82
2023/01/11 11:53:35;;;;;;;20.70;3.13;;;8.80;99.90;;;;;;5112168;28;20048;-81
2023/01/11 11:56:23;;;;;;;24.67;3.60;;;8.80;99.90;;;;;;5101996;28;20332;-81
2023/01/11 11:58:50;;;;;;;21.77;4.20;;;8.80;99.90;;;;;;5094965;28;20295;-82
2023/01/11 12:01:29;;;;;;;22.77;3.90;;;8.90;99.90;;;;;;5113008;28;20282;-81
2023/01/11 12:04:03;;;;;;;24.80;4.13;;;8.90;99.90;;;;;;5111837;28;20285;-83
2023/01/11 12:06:30;;;;;;;27.13;4.53;;;9.00;99.90;;;;;;5111619;28;20321;-82
2023/01/11 12:09:00;;;;;;;24.23;4.30;;;9.00;99.90;;;;;;5111821;28;20056;-82
2023/01/11 12:11:35;;;;;;;23.60;4.73;;;9.10;99.90;;;;;;5095257;28;20296;-81
2023/01/11 12:14:10;;;;;;;29.27;3.70;;;9.10;99.90;;;;;;5115304;28;20334;-83
2023/01/11 12:16:39;;;;;;;26.98;4.00;;;9.10;99.90;;;;;;5115731;28;20100;-86
2023/01/11 12:19:40;;;;;;;26.90;4.27;;;9.20;99.90;;;;;;5116645;28;20051;-83
2023/01/11 12:22:17;;;;;;;21.43;4.03;;;9.20;99.90;;;;;;5116740;28;20355;-84
2023/01/11 12:24:47;;;;;;;22.70;4.10;;;9.20;99.90;;;;;;5114062;28;20301;-85
2023/01/11 12:27:19;;;;;;;24.77;4.63;;;9.20;99.90;;;;;;5114211;28;20803;-83
2023/01/11 12:30:04;;;;;;;31.97;5.93;;;9.20;99.90;;;;;;5114938;28;20293;-83
2023/01/11 12:32:55;;;;;;;25.70;4.70;;;9.20;99.90;;;;;;5097892;28;20781;-83
2023/01/11 12:35:34;;;;;;;30.53;5.53;;;9.20;99.90;;;;;;5116181;27;20270;-83
2023/01/11 12:38:03;;;;;;;24.67;3.70;;;9.20;99.90;;;;;;5114794;28;20687;-83
2023/01/11 12:40:32;;;;;;;26.63;5.20;;;9.20;99.90;;;;;;5115275;28;20297;-82
2023/01/11 12:43:41;;;;;;;23.77;4.50;;;9.10;99.90;;;;;;5097932;28;20664;-83
2023/01/11 12:46:28;;;;;;;24.20;4.53;;;9.10;99.90;;;;;;5114598;28;20308;-82
2023/01/11 12:49:14;;;;;;;24.40;4.57;;;9.10;99.90;;;;;;5114537;28;20802;-82
2023/01/11 12:51:43;;;;;;;27.67;4.80;;;9.10;99.90;;;;;;5114979;28;20297;-82
2023/01/11 12:54:11;;;;;;;28.90;4.67;;;9.10;99.90;;;;;;5115382;28;20284;-82
2023/01/11 12:57:04;;;;;;;26.83;5.07;;;9.10;99.90;;;;;;5115837;28;20368;-82
2023/01/11 12:59:48;;;;;;;29.57;4.17;;;9.10;99.90;;;;;;5097855;28;20309;-82
2023/01/11 13:02:48;;;;;;;25.80;4.03;;;9.10;99.90;;;;;;5115949;28;20689;-82
2023/01/11 13:05:41;;;;;;;33.50;4.77;;;9.20;99.90;;;;;;5114488;28;20316;-83
2023/01/11 13:08:14;;;;;;;34.90;5.40;;;9.20;99.90;;;;;;5114421;28;20376;-83
2023/01/11 13:11:33;;;;;;;33.90;5.27;;;9.20;99.90;;;;;;5097640;28;20384;-83
2023/01/11 13:14:35;;;;;;;21.30;4.43;;;9.30;99.90;;;;;;5114452;28;20293;-83
2023/01/11 13:17:08;;;;;;;32.77;4.73;;;9.30;99.90;;;;;;5114280;28;20796;-82
2023/01/11 13:19:51;;;;;;;30.63;4.53;;;9.40;99.90;;;;;;5114748;28;20320;-82
2023/01/11 13:22:22;;;;;;;24.83;4.80;;;9.40;99.90;;;;;;5115454;28;20360;-83
2023/01/11 13:24:50;;;;;;;21.53;4.13;;;9.40;99.90;;;;;;5114243;28;20797;-85
2023/01/11 13:27:23;;;;;;;25.73;5.23;;;9.40;99.90;;;;;;5114249;28;20336;-82
2023/01/11 13:30:00;;;;;;;31.93;6.93;;;9.40;99.90;;;;;;5115112;28;20630;-85
2023/01/11 13:32:32;;;;;;;22.03;4.30;;;9.30;99.90;;;;;;5113611;28;20285;-86
2023/01/11 13:35:26;;;;;;;25.73;4.93;;;9.30;99.90;;;;;;5114012;28;20442;-89
2023/01/11 13:38:09;;;;;;;26.23;5.17;;;9.30;99.90;;;;;;5112605;28;20294;-83
2023/01/11 13:40:47;;;;;;;29.30;4.77;;;9.30;99.90;;;;;;5114588;28;20278;-78